Alliance, North Carolina
Current Conditions -  °F | °C
As of 3:54 PM on Tuesday 27 Jan 2015 (Local Time) from KEWN Reporting Station
Overcast Overcast  
Wind Chill: 33°   Ceiling: 2900
Heat Index: 40°   Visibility: 10mi
Dew Point: 27°   Wind: 13mph
Humidity: 60%   Direction: 310°NW
Pressure: 29.82"   Gusts: NA
Location:  35.14°N, 76.8°W
Report Text: KEWN 272054Z 31011KT 10SM OVC029 04/M03 A2982 RMK AO2 SLP096 T00441028 53010
Loading
Personal Weather Stations






























Interactive Weather Map New forecast layout! Learn more

10-Day Weather Forecast

Advertisements
Track Severe Weather on mobile